createdAt,value
2018-08-28T00:00:11.856Z,979.53
2018-08-28T00:01:11.781Z,979.48
2018-08-28T00:02:11.698Z,979.47
2018-08-28T00:03:32.624Z,979.44
2018-08-28T00:04:11.547Z,979.44
2018-08-28T00:05:11.481Z,979.42
2018-08-28T00:06:11.401Z,979.37
2018-08-28T00:07:11.333Z,979.37
2018-08-28T00:08:11.254Z,979.40
2018-08-28T00:09:32.164Z,979.38
2018-08-28T00:10:11.106Z,979.37
2018-08-28T00:11:11.030Z,979.39
2018-08-28T00:12:10.970Z,979.40
2018-08-28T00:13:10.883Z,979.38
2018-08-28T00:14:10.811Z,979.41
2018-08-28T00:15:31.719Z,979.41
2018-08-28T00:16:10.677Z,979.47
2018-08-28T00:17:10.674Z,979.50
2018-08-28T00:18:10.517Z,979.52
2018-08-28T00:19:10.441Z,979.54
2018-08-28T00:20:10.372Z,979.48
2018-08-28T00:21:31.278Z,979.51
2018-08-28T00:22:10.221Z,979.51
2018-08-28T00:23:10.153Z,979.49
2018-08-28T00:24:10.082Z,979.50
2018-08-28T00:25:09.987Z,979.48
2018-08-28T00:26:09.922Z,979.51
2018-08-28T00:27:30.823Z,979.53
2018-08-28T00:28:09.774Z,979.51
2018-08-28T00:29:09.696Z,979.53
2018-08-28T00:30:09.616Z,979.49
2018-08-28T00:31:09.540Z,979.49
2018-08-28T00:32:09.480Z,979.53
2018-08-28T00:33:30.371Z,979.52
2018-08-28T00:34:09.334Z,979.54
2018-08-28T00:35:09.242Z,979.54
2018-08-28T00:36:09.184Z,979.55
2018-08-28T00:37:09.093Z,979.56
2018-08-28T00:38:09.028Z,979.55
2018-08-28T00:39:29.933Z,979.59
2018-08-28T00:40:08.877Z,979.55
2018-08-28T00:41:08.798Z,979.58
2018-08-28T00:42:08.731Z,979.60
2018-08-28T00:43:08.652Z,979.65
2018-08-28T00:44:08.580Z,979.64
2018-08-28T00:45:29.485Z,979.65
2018-08-28T00:46:08.432Z,979.63
2018-08-28T00:47:08.358Z,979.66
2018-08-28T00:48:08.284Z,979.65
2018-08-28T00:49:08.210Z,979.67
2018-08-28T00:50:08.137Z,979.68
2018-08-28T00:51:29.038Z,979.65
2018-08-28T00:52:07.992Z,979.66
2018-08-28T00:53:07.899Z,979.65
2018-08-28T00:54:07.845Z,979.68
2018-08-28T00:55:07.756Z,979.69
2018-08-28T00:56:07.699Z,979.66
2018-08-28T00:57:28.586Z,979.66
2018-08-28T00:58:07.536Z,979.68
2018-08-28T00:59:07.459Z,979.62
2018-08-28T01:00:07.391Z,979.63
2018-08-28T01:01:07.312Z,979.66
2018-08-28T01:02:07.238Z,979.67
2018-08-28T01:03:28.144Z,979.67
2018-08-28T01:04:07.095Z,979.71
2018-08-28T01:05:07.015Z,979.72
2018-08-28T01:06:06.946Z,979.73
2018-08-28T01:07:06.867Z,979.74
2018-08-28T01:08:06.795Z,979.75
2018-08-28T01:09:27.699Z,979.76
2018-08-28T01:10:06.649Z,979.78
2018-08-28T01:11:06.569Z,979.75
2018-08-28T01:12:06.503Z,979.79
2018-08-28T01:13:06.423Z,979.79
2018-08-28T01:14:06.354Z,979.82
2018-08-28T01:15:27.252Z,979.84
2018-08-28T01:16:06.207Z,979.85
2018-08-28T01:17:06.128Z,979.86
2018-08-28T01:18:06.046Z,979.83
2018-08-28T01:19:05.972Z,979.84
2018-08-28T01:20:05.915Z,979.82
2018-08-28T01:21:26.808Z,979.87
2018-08-28T01:22:05.765Z,979.88
2018-08-28T01:23:05.669Z,979.87
2018-08-28T01:24:05.612Z,979.87
2018-08-28T01:25:05.522Z,979.89
2018-08-28T01:26:05.461Z,979.92
2018-08-28T01:27:26.356Z,979.88
2018-08-28T01:28:05.315Z,979.92
2018-08-28T01:29:05.226Z,979.96
2018-08-28T01:30:05.161Z,979.98
2018-08-28T01:31:05.082Z,979.96
2018-08-28T01:32:05.006Z,979.95
2018-08-28T01:33:25.915Z,979.96
2018-08-28T01:34:04.862Z,979.98
2018-08-28T01:35:04.781Z,979.95
2018-08-28T01:36:04.713Z,979.95
2018-08-28T01:37:04.642Z,980.00
2018-08-28T01:38:04.568Z,979.97
2018-08-28T01:39:25.468Z,979.98
2018-08-28T01:40:04.418Z,979.98
2018-08-28T01:41:04.339Z,979.97
2018-08-28T01:42:04.271Z,980.00
2018-08-28T01:43:04.190Z,979.98
2018-08-28T01:44:04.121Z,980.00
2018-08-28T01:45:25.028Z,979.99
2018-08-28T01:46:03.975Z,980.00
2018-08-28T01:47:03.895Z,980.02
2018-08-28T01:48:03.829Z,980.02
2018-08-28T01:49:03.749Z,979.95
2018-08-28T01:50:03.681Z,979.96
2018-08-28T01:51:24.624Z,979.95
2018-08-28T01:52:03.532Z,979.95
2018-08-28T01:53:03.436Z,979.90
2018-08-28T01:54:03.390Z,979.89
2018-08-28T01:55:03.297Z,979.91
2018-08-28T01:56:03.234Z,979.86
2018-08-28T01:57:24.135Z,979.82
2018-08-28T01:58:03.868Z,979.87
2018-08-28T01:59:02.997Z,979.84
2018-08-28T02:00:02.939Z,979.79
2018-08-28T02:01:02.855Z,979.83
2018-08-28T02:02:02.782Z,979.85
2018-08-28T02:03:23.694Z,979.86
2018-08-28T02:04:02.642Z,979.82
2018-08-28T02:05:02.554Z,979.86
2018-08-28T02:06:02.488Z,979.86
2018-08-28T02:07:02.407Z,979.88
2018-08-28T02:08:02.339Z,979.88
2018-08-28T02:09:23.238Z,979.90
2018-08-28T02:10:02.191Z,979.90
2018-08-28T02:11:02.111Z,979.90
2018-08-28T02:12:02.040Z,979.91
2018-08-28T02:13:02.033Z,979.93
2018-08-28T02:14:01.903Z,979.89
2018-08-28T02:15:22.793Z,979.89
2018-08-28T02:16:01.748Z,979.90
2018-08-28T02:17:01.669Z,979.87
2018-08-28T02:18:01.596Z,979.87
2018-08-28T02:19:01.518Z,979.88
2018-08-28T02:20:01.456Z,979.89
2018-08-28T02:21:22.352Z,979.90
2018-08-28T02:22:01.305Z,979.92
2018-08-28T02:23:01.222Z,979.91
2018-08-28T02:24:01.151Z,979.91
2018-08-28T02:25:01.073Z,979.93
2018-08-28T02:26:01.859Z,979.91
2018-08-28T02:27:21.910Z,979.89
2018-08-28T02:28:00.857Z,979.91
2018-08-28T02:29:00.781Z,979.91
2018-08-28T02:30:00.727Z,979.89
2018-08-28T02:31:00.634Z,979.93
2018-08-28T02:32:00.561Z,979.90
2018-08-28T02:33:21.462Z,979.90
2018-08-28T02:34:00.412Z,979.91
2018-08-28T02:35:00.323Z,979.90
2018-08-28T02:36:00.264Z,979.90
2018-08-28T02:37:00.175Z,979.90
2018-08-28T02:38:00.111Z,979.90
2018-08-28T02:39:21.011Z,979.94
2018-08-28T02:39:59.967Z,979.93
2018-08-28T02:40:59.881Z,979.97
2018-08-28T02:41:59.810Z,979.94
2018-08-28T02:42:59.736Z,979.88
2018-08-28T02:43:59.680Z,979.92
2018-08-28T02:45:20.565Z,979.90
2018-08-28T02:45:59.518Z,979.87
2018-08-28T02:46:59.440Z,979.88
2018-08-28T02:47:59.368Z,979.91
2018-08-28T02:48:59.290Z,979.90
2018-08-28T02:49:59.228Z,979.92
2018-08-28T02:51:20.124Z,979.93
2018-08-28T02:51:59.070Z,979.91
2018-08-28T02:52:58.993Z,979.91
2018-08-28T02:53:58.929Z,979.91
2018-08-28T02:54:58.849Z,979.90
2018-08-28T02:55:58.799Z,979.89
2018-08-28T02:57:19.678Z,979.88
2018-08-28T02:57:58.630Z,979.88
2018-08-28T02:58:58.546Z,979.93
2018-08-28T02:59:58.481Z,979.95
2018-08-28T03:00:58.393Z,979.97
2018-08-28T03:01:58.330Z,979.95
2018-08-28T03:03:19.238Z,979.96
2018-08-28T03:03:58.188Z,979.93
2018-08-28T03:04:58.093Z,979.93
2018-08-28T03:05:58.037Z,979.92
2018-08-28T03:06:57.952Z,979.96
2018-08-28T03:07:57.883Z,979.89
2018-08-28T03:09:18.780Z,979.89
2018-08-28T03:09:57.733Z,979.90
2018-08-28T03:10:57.651Z,979.90
2018-08-28T03:11:57.581Z,979.89
2018-08-28T03:12:57.502Z,979.92
2018-08-28T03:13:57.435Z,979.92
2018-08-28T03:15:18.342Z,979.91
2018-08-28T03:15:57.318Z,979.94
2018-08-28T03:16:57.212Z,979.95
2018-08-28T03:17:57.136Z,980.00
2018-08-28T03:18:57.063Z,980.02
2018-08-28T03:19:56.991Z,979.98
2018-08-28T03:21:17.890Z,979.99
2018-08-28T03:21:56.841Z,980.02
2018-08-28T03:22:56.762Z,980.02
2018-08-28T03:23:56.695Z,980.02
2018-08-28T03:24:56.603Z,980.00
2018-08-28T03:25:56.545Z,979.98
2018-08-28T03:27:17.447Z,980.05
2018-08-28T03:27:56.396Z,980.01
2018-08-28T03:28:56.320Z,980.02
2018-08-28T03:29:56.249Z,980.04
2018-08-28T03:30:56.159Z,980.04
2018-08-28T03:31:56.106Z,980.01
2018-08-28T03:33:16.995Z,980.04
2018-08-28T03:33:55.945Z,980.09
2018-08-28T03:34:55.867Z,980.10
2018-08-28T03:35:55.797Z,980.13
2018-08-28T03:36:55.717Z,980.10
2018-08-28T03:37:55.657Z,980.15
2018-08-28T03:39:16.550Z,980.10
2018-08-28T03:39:55.498Z,980.11
2018-08-28T03:40:55.420Z,980.10
2018-08-28T03:41:55.354Z,980.12
2018-08-28T03:42:55.272Z,980.13
2018-08-28T03:43:55.206Z,980.14
2018-08-28T03:45:16.116Z,980.12
2018-08-28T03:45:55.060Z,980.12
2018-08-28T03:46:54.975Z,980.15
2018-08-28T03:47:54.906Z,980.15
2018-08-28T03:48:54.820Z,980.15
2018-08-28T03:49:54.759Z,980.10
2018-08-28T03:51:15.668Z,980.12
2018-08-28T03:51:54.607Z,980.11
2018-08-28T03:52:54.521Z,980.11
2018-08-28T03:53:54.513Z,980.11
2018-08-28T03:54:54.380Z,980.14
2018-08-28T03:55:54.309Z,980.12
2018-08-28T03:57:15.212Z,980.13
2018-08-28T03:57:54.161Z,980.15
2018-08-28T03:58:54.078Z,980.15
2018-08-28T03:59:54.009Z,980.19
2018-08-28T04:00:53.933Z,980.21
2018-08-28T04:01:53.864Z,980.19
2018-08-28T04:03:14.767Z,980.18
2018-08-28T04:03:53.717Z,980.16
2018-08-28T04:04:53.628Z,980.15
2018-08-28T04:05:53.565Z,980.13
2018-08-28T04:06:53.477Z,980.11
2018-08-28T04:07:53.417Z,980.14
2018-08-28T04:09:14.308Z,980.09
2018-08-28T04:09:53.263Z,980.12
2018-08-28T04:10:53.188Z,980.13
2018-08-28T04:11:53.111Z,980.15
2018-08-28T04:12:53.031Z,980.12
2018-08-28T04:13:52.963Z,980.12
2018-08-28T04:15:13.874Z,980.15
2018-08-28T04:15:52.820Z,980.19
2018-08-28T04:16:52.753Z,980.14
2018-08-28T04:17:52.668Z,980.16
2018-08-28T04:18:52.598Z,980.15
2018-08-28T04:19:52.522Z,980.15
2018-08-28T04:21:13.427Z,980.17
2018-08-28T04:21:52.378Z,980.16
2018-08-28T04:22:52.283Z,980.17
2018-08-28T04:23:52.225Z,980.16
2018-08-28T04:24:52.131Z,980.18
2018-08-28T04:25:52.078Z,980.27
2018-08-28T04:27:12.970Z,980.21
2018-08-28T04:27:51.925Z,980.25
2018-08-28T04:28:51.839Z,980.24
2018-08-28T04:29:51.775Z,980.27
2018-08-28T04:30:51.727Z,980.23
2018-08-28T04:31:51.630Z,980.26
2018-08-28T04:33:12.524Z,980.28
2018-08-28T04:33:51.473Z,980.30
2018-08-28T04:34:51.395Z,980.28
2018-08-28T04:35:51.328Z,980.29
2018-08-28T04:36:51.241Z,980.30
2018-08-28T04:37:51.178Z,980.30
2018-08-28T04:39:12.079Z,980.31
2018-08-28T04:39:51.023Z,980.31
2018-08-28T04:40:50.943Z,980.32
2018-08-28T04:41:50.903Z,980.32
2018-08-28T04:42:50.793Z,980.32
2018-08-28T04:43:50.733Z,980.37
2018-08-28T04:45:11.630Z,980.38
2018-08-28T04:45:50.583Z,980.35
2018-08-28T04:46:50.497Z,980.39
2018-08-28T04:47:50.428Z,980.42
2018-08-28T04:48:50.358Z,980.43
2018-08-28T04:49:50.282Z,980.43
2018-08-28T04:51:11.185Z,980.43
2018-08-28T04:51:50.122Z,980.42
2018-08-28T04:52:50.046Z,980.42
2018-08-28T04:53:49.975Z,980.44
2018-08-28T04:54:49.926Z,980.42
2018-08-28T04:55:49.831Z,980.43
2018-08-28T04:57:10.729Z,980.44
2018-08-28T04:57:49.680Z,980.45
2018-08-28T04:58:49.592Z,980.50
2018-08-28T04:59:49.534Z,980.48
2018-08-28T05:00:49.548Z,980.49
2018-08-28T05:01:49.377Z,980.51
2018-08-28T05:03:10.276Z,980.52
2018-08-28T05:03:49.226Z,980.54
2018-08-28T05:04:49.147Z,980.53
2018-08-28T05:05:49.078Z,980.56
2018-08-28T05:06:48.998Z,980.57
2018-08-28T05:07:48.934Z,980.56
2018-08-28T05:09:09.836Z,980.57
2018-08-28T05:09:48.775Z,980.57
2018-08-28T05:10:48.696Z,980.62
2018-08-28T05:11:48.673Z,980.59
2018-08-28T05:12:48.550Z,980.60
2018-08-28T05:13:48.476Z,980.61
2018-08-28T05:15:09.383Z,980.58
2018-08-28T05:15:48.357Z,980.60
2018-08-28T05:16:48.248Z,980.59
2018-08-28T05:17:48.196Z,980.58
2018-08-28T05:18:48.093Z,980.55
2018-08-28T05:19:48.036Z,980.58
2018-08-28T05:21:08.923Z,980.61
2018-08-28T05:21:47.877Z,980.57
2018-08-28T05:22:47.797Z,980.61
2018-08-28T05:23:47.729Z,980.60
2018-08-28T05:24:47.650Z,980.61
2018-08-28T05:25:47.592Z,980.59
2018-08-28T05:27:08.479Z,980.57
2018-08-28T05:27:47.435Z,980.56
2018-08-28T05:28:47.341Z,980.61
2018-08-28T05:29:47.274Z,980.59
2018-08-28T05:30:47.193Z,980.61
2018-08-28T05:31:47.127Z,980.60
2018-08-28T05:33:08.027Z,980.62
2018-08-28T05:33:46.980Z,980.62
2018-08-28T05:34:46.898Z,980.62
2018-08-28T05:35:46.830Z,980.60
2018-08-28T05:36:46.751Z,980.66
2018-08-28T05:37:46.681Z,980.67
2018-08-28T05:39:07.586Z,980.68
2018-08-28T05:39:46.527Z,980.67
2018-08-28T05:40:46.446Z,980.68
2018-08-28T05:41:46.374Z,980.71
2018-08-28T05:42:46.296Z,980.70
2018-08-28T05:43:46.226Z,980.69
2018-08-28T05:45:07.128Z,980.69
2018-08-28T05:45:46.078Z,980.69
2018-08-28T05:46:45.999Z,980.73
2018-08-28T05:47:45.937Z,980.70
2018-08-28T05:48:45.842Z,980.72
2018-08-28T05:49:45.787Z,980.72
2018-08-28T05:51:06.687Z,980.73
2018-08-28T05:51:45.639Z,980.71
2018-08-28T05:52:45.548Z,980.71
2018-08-28T05:53:45.480Z,980.71
2018-08-28T05:54:45.399Z,980.70
2018-08-28T05:55:45.339Z,980.70
2018-08-28T05:57:06.230Z,980.73
2018-08-28T05:57:45.184Z,980.75
2018-08-28T05:58:45.104Z,980.76
2018-08-28T05:59:45.038Z,980.74
2018-08-28T06:00:44.946Z,980.77
2018-08-28T06:01:44.886Z,980.77
2018-08-28T06:03:05.864Z,980.78
2018-08-28T06:03:44.738Z,980.78
2018-08-28T06:04:44.649Z,980.83
2018-08-28T06:05:44.581Z,980.82
2018-08-28T06:06:44.502Z,980.85
2018-08-28T06:07:44.437Z,980.84
2018-08-28T06:09:05.335Z,980.86
2018-08-28T06:09:44.294Z,980.85
2018-08-28T06:10:44.207Z,980.86
2018-08-28T06:11:44.136Z,980.84
2018-08-28T06:12:44.061Z,980.82
2018-08-28T06:13:43.985Z,980.87
2018-08-28T06:15:04.892Z,980.86
2018-08-28T06:15:43.841Z,980.88
2018-08-28T06:16:43.753Z,980.86
2018-08-28T06:17:43.684Z,980.85
2018-08-28T06:18:43.602Z,980.87
2018-08-28T06:19:43.540Z,980.88
2018-08-28T06:21:04.437Z,980.88
2018-08-28T06:21:43.382Z,980.88
2018-08-28T06:22:43.305Z,980.91
2018-08-28T06:23:43.249Z,980.88
2018-08-28T06:24:43.161Z,980.92
2018-08-28T06:25:43.089Z,980.92
2018-08-28T06:27:03.992Z,980.92
2018-08-28T06:27:43.055Z,980.91
2018-08-28T06:28:42.864Z,980.91
2018-08-28T06:29:42.855Z,980.87
2018-08-28T06:30:42.716Z,980.91
2018-08-28T06:31:42.665Z,980.89
2018-08-28T06:33:03.548Z,980.89
2018-08-28T06:33:42.503Z,980.87
2018-08-28T06:34:42.478Z,980.85
2018-08-28T06:35:42.354Z,980.93
2018-08-28T06:36:42.294Z,980.91
2018-08-28T06:37:42.192Z,980.89
2018-08-28T06:39:03.103Z,980.93
2018-08-28T06:39:42.108Z,980.92
2018-08-28T06:40:41.973Z,980.93
2018-08-28T06:41:41.944Z,980.93
2018-08-28T06:42:41.837Z,980.92
2018-08-28T06:43:41.806Z,980.96
2018-08-28T06:45:02.719Z,980.91
2018-08-28T06:45:41.599Z,980.93
2018-08-28T06:46:41.540Z,980.93
2018-08-28T06:47:41.451Z,980.93
2018-08-28T06:48:41.375Z,980.95
2018-08-28T06:49:41.425Z,980.95
2018-08-28T06:51:02.215Z,980.93
2018-08-28T06:51:41.266Z,980.97
2018-08-28T06:52:41.076Z,980.99
2018-08-28T06:53:41.007Z,980.95
2018-08-28T06:54:40.984Z,980.96
2018-08-28T06:55:40.864Z,980.95
2018-08-28T06:57:01.771Z,980.96
2018-08-28T06:57:40.795Z,980.96
2018-08-28T06:58:40.635Z,980.96
2018-08-28T06:59:40.606Z,981.00
2018-08-28T07:00:40.485Z,980.97
2018-08-28T07:01:40.515Z,980.97
2018-08-28T07:03:01.320Z,980.97
2018-08-28T07:03:40.267Z,980.97
2018-08-28T07:04:40.227Z,980.98
2018-08-28T07:05:40.119Z,980.97
2018-08-28T07:06:40.040Z,980.94
2018-08-28T07:07:40.044Z,980.97
2018-08-28T07:09:00.875Z,980.98
2018-08-28T07:09:39.828Z,981.00
2018-08-28T07:10:39.755Z,981.04
2018-08-28T07:11:39.676Z,981.05
2018-08-28T07:12:39.596Z,981.03
2018-08-28T07:13:39.577Z,981.02
2018-08-28T07:15:00.438Z,981.04
2018-08-28T07:15:39.479Z,981.05
2018-08-28T07:16:39.302Z,981.07
2018-08-28T07:17:39.291Z,981.02
2018-08-28T07:18:39.157Z,981.08
2018-08-28T07:19:39.084Z,981.14
2018-08-28T07:20:59.987Z,981.12
2018-08-28T07:21:38.938Z,981.10
2018-08-28T07:22:38.856Z,981.12
2018-08-28T07:23:38.828Z,981.09
2018-08-28T07:24:38.737Z,981.11
2018-08-28T07:25:38.676Z,981.09
2018-08-28T07:26:59.631Z,981.10
2018-08-28T07:27:38.485Z,981.07
2018-08-28T07:28:38.455Z,981.11
2018-08-28T07:29:38.343Z,981.11
2018-08-28T07:30:38.364Z,981.09
2018-08-28T07:31:38.215Z,981.09
2018-08-28T07:32:59.160Z,981.08
2018-08-28T07:33:38.049Z,981.08
2018-08-28T07:34:37.979Z,981.08
2018-08-28T07:35:37.900Z,981.07
2018-08-28T07:36:37.891Z,981.03
2018-08-28T07:37:37.760Z,981.04
2018-08-28T07:38:58.673Z,980.99
2018-08-28T07:39:37.706Z,981.09
2018-08-28T07:40:37.535Z,981.08
2018-08-28T07:41:37.517Z,981.07
2018-08-28T07:42:37.389Z,981.09
2018-08-28T07:43:37.432Z,981.07
2018-08-28T07:44:58.231Z,981.10
2018-08-28T07:45:37.171Z,981.10
2018-08-28T07:46:37.141Z,981.13
2018-08-28T07:47:37.032Z,981.11
2018-08-28T07:48:36.961Z,981.10
2018-08-28T07:49:36.959Z,981.11
2018-08-28T07:50:57.796Z,981.07
2018-08-28T07:51:36.736Z,981.09
2018-08-28T07:52:36.766Z,981.09
2018-08-28T07:53:36.594Z,981.11
2018-08-28T07:54:36.519Z,981.13
2018-08-28T07:55:36.449Z,981.14
2018-08-28T07:56:57.352Z,981.14
2018-08-28T07:57:36.405Z,981.18
2018-08-28T07:58:36.234Z,981.18
2018-08-28T07:59:36.208Z,981.18
2018-08-28T08:00:36.094Z,981.11
2018-08-28T08:01:36.021Z,981.16
2018-08-28T08:02:57.021Z,981.19
2018-08-28T08:03:35.867Z,981.22
2018-08-28T08:04:35.789Z,981.21
2018-08-28T08:05:35.731Z,981.19
2018-08-28T08:06:35.646Z,981.20
2018-08-28T08:07:35.575Z,981.21
2018-08-28T08:08:56.547Z,981.19
2018-08-28T08:09:35.436Z,981.25
2018-08-28T08:10:35.450Z,981.23
2018-08-28T08:11:35.289Z,981.27
2018-08-28T08:12:35.208Z,981.25
2018-08-28T08:13:35.131Z,981.24
2018-08-28T08:14:56.060Z,981.27
2018-08-28T08:15:35.040Z,981.27
2018-08-28T08:16:34.994Z,981.28
2018-08-28T08:17:34.852Z,981.33
2018-08-28T08:18:34.784Z,981.33
2018-08-28T08:19:34.806Z,981.32
2018-08-28T08:20:55.606Z,981.32
2018-08-28T08:21:34.567Z,981.32
2018-08-28T08:22:34.527Z,981.33
2018-08-28T08:23:34.409Z,981.35
2018-08-28T08:24:34.435Z,981.35
2018-08-28T08:25:34.271Z,981.33
2018-08-28T08:26:55.192Z,981.37
2018-08-28T08:27:34.159Z,981.39
2018-08-28T08:28:34.060Z,981.41
2018-08-28T08:29:33.984Z,981.37
2018-08-28T08:30:33.972Z,981.41
2018-08-28T08:31:33.840Z,981.42
2018-08-28T08:32:54.873Z,981.38
2018-08-28T08:33:33.700Z,981.40
2018-08-28T08:34:33.636Z,981.34
2018-08-28T08:35:33.565Z,981.38
2018-08-28T08:36:33.601Z,981.35
2018-08-28T08:37:33.425Z,981.33
2018-08-28T08:38:54.337Z,981.33
2018-08-28T08:39:33.308Z,981.35
2018-08-28T08:40:33.196Z,981.37
2018-08-28T08:41:33.220Z,981.36
2018-08-28T08:42:33.068Z,981.31
2018-08-28T08:43:32.992Z,981.38
2018-08-28T08:44:53.904Z,981.32
2018-08-28T08:45:32.940Z,981.30
2018-08-28T08:46:32.782Z,981.29
2018-08-28T08:47:32.757Z,981.27
2018-08-28T08:48:32.625Z,981.31
2018-08-28T08:49:32.569Z,981.25
2018-08-28T08:50:53.480Z,981.28
2018-08-28T08:51:32.468Z,981.29
2018-08-28T08:52:32.348Z,981.30
2018-08-28T08:53:32.378Z,981.31
2018-08-28T08:54:32.213Z,981.31
2018-08-28T08:55:32.141Z,981.33
2018-08-28T08:56:53.055Z,981.30
2018-08-28T08:57:32.128Z,981.27
2018-08-28T08:58:31.923Z,981.32
2018-08-28T08:59:31.917Z,981.27
2018-08-28T09:00:31.786Z,981.29
2018-08-28T09:01:31.720Z,981.26
2018-08-28T09:02:52.723Z,981.29
2018-08-28T09:03:31.569Z,981.29
2018-08-28T09:04:31.499Z,981.27
2018-08-28T09:05:31.443Z,981.27
2018-08-28T09:06:31.354Z,981.25
2018-08-28T09:07:31.353Z,981.28
2018-08-28T09:08:52.196Z,981.26
2018-08-28T09:09:31.151Z,981.25
2018-08-28T09:10:31.172Z,981.27
2018-08-28T09:11:31.001Z,981.24
2018-08-28T09:12:30.938Z,981.26
2018-08-28T09:13:30.922Z,981.22
2018-08-28T09:14:51.784Z,981.27
2018-08-28T09:15:30.722Z,981.23
2018-08-28T09:16:30.696Z,981.23
2018-08-28T09:17:30.573Z,981.21
2018-08-28T09:18:30.517Z,981.22
2018-08-28T09:19:30.571Z,981.23
2018-08-28T09:20:51.357Z,981.22
2018-08-28T09:21:30.300Z,981.19
2018-08-28T09:22:30.328Z,981.20
2018-08-28T09:23:30.151Z,981.24
2018-08-28T09:24:30.091Z,981.25
2018-08-28T09:25:30.025Z,981.20
2018-08-28T09:26:50.936Z,981.20
2018-08-28T09:27:29.875Z,981.17
2018-08-28T09:28:29.814Z,981.19
2018-08-28T09:29:29.768Z,981.15
2018-08-28T09:30:29.667Z,981.18
2018-08-28T09:31:29.691Z,981.18
2018-08-28T09:32:50.512Z,981.19
2018-08-28T09:33:29.471Z,981.19
2018-08-28T09:34:29.493Z,981.23
2018-08-28T09:35:29.326Z,981.19
2018-08-28T09:36:29.261Z,981.19
2018-08-28T09:37:29.176Z,981.14
2018-08-28T09:38:50.297Z,981.15
2018-08-28T09:39:29.051Z,981.14
2018-08-28T09:40:29.019Z,981.17
2018-08-28T09:41:28.912Z,981.12
2018-08-28T09:42:28.840Z,981.13
2018-08-28T09:43:28.842Z,981.10
2018-08-28T09:44:49.695Z,981.09
2018-08-28T09:45:28.640Z,981.06
2018-08-28T09:46:28.567Z,981.13
2018-08-28T09:47:28.504Z,981.10
2018-08-28T09:48:28.532Z,981.15
2018-08-28T09:49:28.359Z,981.15
2018-08-28T09:50:49.314Z,981.16
2018-08-28T09:51:28.281Z,981.16
2018-08-28T09:52:28.148Z,981.16
2018-08-28T09:53:28.190Z,981.17
2018-08-28T09:54:28.015Z,981.14
2018-08-28T09:55:28.004Z,981.14
2018-08-28T09:56:48.857Z,981.14
2018-08-28T09:57:27.804Z,981.14
2018-08-28T09:58:27.821Z,981.13
2018-08-28T09:59:27.668Z,981.13
2018-08-28T10:00:27.597Z,981.11
2018-08-28T10:01:27.519Z,981.12
2018-08-28T10:02:48.441Z,981.15
2018-08-28T10:03:27.391Z,981.13
2018-08-28T10:04:27.327Z,981.14
2018-08-28T10:05:27.253Z,981.10
2018-08-28T10:06:27.254Z,981.09
2018-08-28T10:07:27.114Z,981.12
2018-08-28T10:08:48.036Z,981.09
2018-08-28T10:09:27.081Z,981.08
2018-08-28T10:10:26.908Z,981.10
2018-08-28T10:11:26.880Z,981.09
2018-08-28T10:12:26.779Z,981.07
2018-08-28T10:13:26.715Z,981.06
2018-08-28T10:14:47.694Z,981.01
2018-08-28T10:15:26.580Z,981.03
2018-08-28T10:16:26.504Z,981.02
2018-08-28T10:17:26.575Z,981.01
2018-08-28T10:18:26.365Z,981.00
2018-08-28T10:19:26.327Z,981.02
2018-08-28T10:20:47.209Z,981.03
2018-08-28T10:21:26.170Z,981.04
2018-08-28T10:22:26.146Z,981.03
2018-08-28T10:23:26.023Z,981.06
2018-08-28T10:24:25.962Z,981.02
2018-08-28T10:25:25.956Z,981.00
2018-08-28T10:26:46.809Z,981.00
2018-08-28T10:27:25.866Z,980.95
2018-08-28T10:28:25.682Z,981.00
2018-08-28T10:29:25.616Z,980.95
2018-08-28T10:30:25.597Z,980.91
2018-08-28T10:31:25.482Z,980.94
2018-08-28T10:32:46.481Z,980.96
2018-08-28T10:33:25.353Z,980.96
2018-08-28T10:34:25.305Z,980.92
2018-08-28T10:35:25.223Z,980.90
2018-08-28T10:36:25.143Z,980.93
2018-08-28T10:37:25.122Z,980.88
2018-08-28T10:38:45.997Z,980.90
2018-08-28T10:39:25.029Z,980.88
2018-08-28T10:40:24.877Z,980.87
2018-08-28T10:41:24.842Z,980.85
2018-08-28T10:42:24.741Z,980.86
2018-08-28T10:43:24.750Z,980.85
2018-08-28T10:44:45.593Z,980.89
2018-08-28T10:45:24.553Z,980.87
2018-08-28T10:46:24.513Z,980.90
2018-08-28T10:47:24.395Z,980.87
2018-08-28T10:48:24.378Z,980.89
2018-08-28T10:49:24.267Z,980.92
2018-08-28T10:50:45.189Z,980.88
2018-08-28T10:51:24.192Z,980.88
2018-08-28T10:52:24.066Z,980.87
2018-08-28T10:53:24.003Z,980.88
2018-08-28T10:54:24.003Z,980.84
2018-08-28T10:55:23.866Z,980.90
2018-08-28T10:56:44.806Z,980.89
2018-08-28T10:57:23.730Z,980.86
2018-08-28T10:58:23.727Z,980.87
2018-08-28T10:59:23.601Z,980.81
2018-08-28T11:00:23.640Z,980.77
2018-08-28T11:01:23.474Z,980.79
2018-08-28T11:02:44.381Z,980.81
2018-08-28T11:03:23.354Z,980.80
2018-08-28T11:04:23.315Z,980.78
2018-08-28T11:05:23.193Z,980.76
2018-08-28T11:06:23.166Z,980.74
2018-08-28T11:07:23.067Z,980.72
2018-08-28T11:08:44.127Z,980.72
2018-08-28T11:09:22.917Z,980.71
2018-08-28T11:10:22.855Z,980.68
2018-08-28T11:11:22.793Z,980.66
2018-08-28T11:12:22.730Z,980.70
2018-08-28T11:13:22.703Z,980.64
2018-08-28T11:14:43.580Z,980.63
2018-08-28T11:15:22.531Z,980.62
2018-08-28T11:16:22.518Z,980.63
2018-08-28T11:17:22.396Z,980.65
2018-08-28T11:18:22.326Z,980.66
2018-08-28T11:19:22.337Z,980.69
2018-08-28T11:20:43.180Z,980.64
2018-08-28T11:21:22.122Z,980.65
2018-08-28T11:22:22.208Z,980.61
2018-08-28T11:23:21.986Z,980.66
2018-08-28T11:24:21.965Z,980.61
2018-08-28T11:25:21.866Z,980.67
2018-08-28T11:26:42.786Z,980.68
2018-08-28T11:27:21.778Z,980.72
2018-08-28T11:28:21.659Z,980.69
2018-08-28T11:29:21.694Z,980.69
2018-08-28T11:30:21.531Z,980.70
2018-08-28T11:31:21.464Z,980.72
2018-08-28T11:32:42.391Z,980.69
2018-08-28T11:33:21.322Z,980.64
2018-08-28T11:34:21.315Z,980.67
2018-08-28T11:35:21.196Z,980.69
2018-08-28T11:36:21.229Z,980.68
2018-08-28T11:37:21.059Z,980.70
2018-08-28T11:38:42.031Z,980.67
2018-08-28T11:39:20.921Z,980.64
2018-08-28T11:40:20.860Z,980.65
2018-08-28T11:41:20.850Z,980.64
2018-08-28T11:42:20.732Z,980.67
2018-08-28T11:43:20.666Z,980.63
2018-08-28T11:44:41.653Z,980.66
2018-08-28T11:45:20.527Z,980.60
2018-08-28T11:46:20.466Z,980.62
2018-08-28T11:47:20.479Z,980.64
2018-08-28T11:48:20.327Z,980.59
2018-08-28T11:49:20.292Z,980.59
2018-08-28T11:50:41.180Z,980.57
2018-08-28T11:51:20.120Z,980.58
2018-08-28T11:52:20.144Z,980.59
2018-08-28T11:53:20.018Z,980.57
2018-08-28T11:54:20.014Z,980.54
2018-08-28T11:55:19.859Z,980.56
2018-08-28T11:56:40.789Z,980.56
2018-08-28T11:57:19.836Z,980.54
2018-08-28T11:58:19.662Z,980.56
2018-08-28T11:59:19.604Z,980.49
2018-08-28T12:00:19.549Z,980.48
2018-08-28T12:01:19.463Z,980.47
2018-08-28T12:02:40.391Z,980.52
2018-08-28T12:03:19.362Z,980.46
2018-08-28T12:04:19.283Z,980.48
2018-08-28T12:05:19.322Z,980.50
2018-08-28T12:06:19.125Z,980.51
2018-08-28T12:07:19.100Z,980.51
2018-08-28T12:08:39.977Z,980.47
2018-08-28T12:09:18.937Z,980.48
2018-08-28T12:10:18.900Z,980.43
2018-08-28T12:11:18.801Z,980.44
2018-08-28T12:12:18.743Z,980.42
2018-08-28T12:13:18.715Z,980.42
2018-08-28T12:14:39.599Z,980.37
2018-08-28T12:15:18.549Z,980.40
2018-08-28T12:16:18.529Z,980.40
2018-08-28T12:17:18.412Z,980.33
2018-08-28T12:18:18.441Z,980.34
2018-08-28T12:19:18.278Z,980.32
2018-08-28T12:20:39.250Z,980.31
2018-08-28T12:21:18.140Z,980.30
2018-08-28T12:22:18.084Z,980.32
2018-08-28T12:23:18.017Z,980.28
2018-08-28T12:24:17.977Z,980.25
2018-08-28T12:25:17.884Z,980.23
2018-08-28T12:26:38.937Z,980.16
2018-08-28T12:27:17.748Z,980.22